UKWW

Vinnytsia / Gavyryshivka Airport

Vinnitsa, Ukraine
TAF UKWW 211710Z 2118/2203 VRB01MPS 9999 BKN020 TEMPO 2121/2203 2000 BR OVC005
Issued Valid From Valid To
Jan-21 @ 17:10 UTC
(7 hours ago)
Jan-21 @ 18:00 UTC
(6 hours ago)
Jan-22 @ 03:00 UTC
(in 3 hours)
Jan-21 @ 18:00 to Jan-22 @ 03:00
TAF UKWW 211710Z 2118/2203 VRB01MPS 9999 BKN020
Wind Visibility Clouds
Variable at 2 knots 10,000+ meters
  • Broken at 2,000' AGL
Temporary Jan-21 @ 21:00 to Jan-22 @ 03:00
TEMPO 2121/2203 2000 BR OVC005
Visibility Clouds Conditions
1,996 meters
  • Overcast at 500' AGL
  • Mist
TAF UKWW 211710Z 2118/2203 VRB01MPS 9999 BKN020 TEMPO 2121/2203 2000 BR OVC005
Issued Jan-21 @ 17:10 UTC
(7 hours ago)
Valid From Jan-21 @ 18:00 UTC
(6 hours ago)
Valid To Jan-22 @ 03:00 UTC
(in 3 hours)
Jan-21 @ 18:00 - Jan-22 @ 03:00
Wind Visibility
Variable at 2 knots 10,000+ meters
Clouds
  • Broken at 2,000' AGL
Temporary Jan-21 @ 21:00 - Jan-22 @ 03:00
Clouds
  • Overcast at 500' AGL
Conditions
  • Mist